WZZ8046 LHBP-UGKO
Flight info
| Callsign | WZZ8046 |
|---|---|
| Flight time | 2h 37m |
| Altitude | 37000 |
| Route | VETIK DCT UVERA DCT TUVNU DCT DINRO DCT UDROS DCT BAMUP UM859 KARDE DCT FALAZ DCT ZERGE DCT ROLIN DCT MAQQO |
| Aircraft | A21N/M-SDE1E2E3FGIJ1J4RWXY/LB1 |
Departure
| Time | 2026-04-16 11:22 |
|---|---|
| Airport | Budapest Liszt Ferenc International Airport (LHBP) |
Arrival
| Time | 2026-04-16 13:59 |
|---|---|
| Airport | David the Builder Kutaisi International Airport (UGKO) |
| Time | Latitude | Longitude | Altitude | Speed | Heading |
|---|---|---|---|---|---|
| 2026-04-16 10:55 | 47.43285 | 19.25718 | 467 ft | 0 kts | 42° |
| 2026-04-16 10:58 | 47.43229 | 19.25800 | 467 ft | 0 kts | 42° |
| 2026-04-16 11:11 | 47.43220 | 19.25787 | 467 ft | 2 kts | 44° |
| 2026-04-16 11:11 | 47.43209 | 19.25772 | 466 ft | 2 kts | 41° |
| 2026-04-16 11:12 | 47.43198 | 19.25758 | 466 ft | 2 kts | 42° |
| 2026-04-16 11:12 | 47.43187 | 19.25744 | 465 ft | 0 kts | 41° |
| 2026-04-16 11:12 | 47.43179 | 19.25734 | 465 ft | 2 kts | 21° |
| 2026-04-16 11:12 | 47.43164 | 19.25731 | 465 ft | 2 kts | 348° |
| 2026-04-16 11:13 | 47.43151 | 19.25740 | 465 ft | 1 kts | 316° |
| 2026-04-16 11:13 | 47.43147 | 19.25747 | 465 ft | 1 kts | 309° |
| 2026-04-16 11:13 | 47.43145 | 19.25750 | 465 ft | 0 kts | 311° |
| 2026-04-16 11:16 | 47.43148 | 19.25745 | 465 ft | 1 kts | 311° |
| 2026-04-16 11:16 | 47.43161 | 19.25724 | 465 ft | 4 kts | 313° |
| 2026-04-16 11:16 | 47.43187 | 19.25684 | 465 ft | 6 kts | 313° |
| 2026-04-16 11:17 | 47.43220 | 19.25632 | 465 ft | 7 kts | 312° |
| 2026-04-16 11:17 | 47.43256 | 19.25574 | 465 ft | 8 kts | 312° |
| 2026-04-16 11:17 | 47.43296 | 19.25509 | 465 ft | 9 kts | 311° |
| 2026-04-16 11:17 | 47.43340 | 19.25436 | 464 ft | 9 kts | 305° |
| 2026-04-16 11:18 | 47.43315 | 19.25346 | 462 ft | 12 kts | 221° |
| 2026-04-16 11:18 | 47.43240 | 19.25246 | 458 ft | 15 kts | 223° |
| 2026-04-16 11:18 | 47.43166 | 19.25148 | 454 ft | 10 kts | 222° |
| 2026-04-16 11:18 | 47.43156 | 19.25134 | 453 ft | 0 kts | 222° |
| 2026-04-16 11:20 | 47.43152 | 19.25129 | 453 ft | 2 kts | 222° |
| 2026-04-16 11:20 | 47.43126 | 19.25093 | 452 ft | 7 kts | 222° |
| 2026-04-16 11:20 | 47.43074 | 19.25022 | 449 ft | 10 kts | 226° |
| 2026-04-16 11:20 | 47.43082 | 19.24971 | 448 ft | 4 kts | 312° |
| 2026-04-16 11:21 | 47.43179 | 19.24812 | 446 ft | 52 kts | 312° |
| 2026-04-16 11:21 | 47.43584 | 19.24155 | 439 ft | 118 kts | 311° |
| 2026-04-16 11:21 | 47.44259 | 19.23061 | 466 ft | 167 kts | 312° |
| 2026-04-16 11:21 | 47.45060 | 19.21788 | 1001 ft | 169 kts | 314° |
| 2026-04-16 11:22 | 47.45873 | 19.20485 | 1604 ft | 174 kts | 311° |
| 2026-04-16 11:22 | 47.46682 | 19.19176 | 2292 ft | 171 kts | 311° |
| 2026-04-16 11:22 | 47.47480 | 19.17891 | 2827 ft | 169 kts | 313° |
| 2026-04-16 11:22 | 47.48286 | 19.16620 | 3308 ft | 169 kts | 321° |
| 2026-04-16 11:23 | 47.49388 | 19.16024 | 3730 ft | 173 kts | 350° |
| 2026-04-16 11:23 | 47.50648 | 19.15791 | 3967 ft | 190 kts | 351° |
| 2026-04-16 11:23 | 47.52022 | 19.15529 | 4193 ft | 208 kts | 351° |
| 2026-04-16 11:23 | 47.53522 | 19.15203 | 4406 ft | 229 kts | 351° |
| 2026-04-16 11:24 | 47.55178 | 19.15339 | 4610 ft | 253 kts | 17° |
| 2026-04-16 11:24 | 47.56739 | 19.16686 | 5046 ft | 268 kts | 37° |
| 2026-04-16 11:24 | 47.58168 | 19.18467 | 5715 ft | 273 kts | 39° |
| 2026-04-16 11:24 | 47.59635 | 19.20283 | 6409 ft | 276 kts | 38° |
| 2026-04-16 11:25 | 47.61131 | 19.22035 | 7102 ft | 279 kts | 36° |
| 2026-04-16 11:25 | 47.62669 | 19.23768 | 7802 ft | 282 kts | 37° |
| 2026-04-16 11:25 | 47.63945 | 19.25969 | 8437 ft | 289 kts | 64° |
| 2026-04-16 11:25 | 47.64270 | 19.28889 | 9085 ft | 293 kts | 97° |
| 2026-04-16 11:26 | 47.63593 | 19.31685 | 9723 ft | 295 kts | 117° |
| 2026-04-16 11:26 | 47.62603 | 19.34391 | 10320 ft | 300 kts | 118° |
| 2026-04-16 11:26 | 47.61613 | 19.37175 | 10641 ft | 316 kts | 117° |
| 2026-04-16 11:26 | 47.60629 | 19.40118 | 11063 ft | 326 kts | 115° |
| 2026-04-16 11:27 | 47.59661 | 19.43156 | 11657 ft | 329 kts | 115° |
| 2026-04-16 11:27 | 47.58699 | 19.46258 | 12263 ft | 333 kts | 114° |
| 2026-04-16 11:27 | 47.57745 | 19.49384 | 12854 ft | 336 kts | 114° |
| 2026-04-16 11:27 | 47.56797 | 19.52515 | 13419 ft | 340 kts | 114° |
| 2026-04-16 11:28 | 47.55821 | 19.55748 | 13977 ft | 343 kts | 114° |
| 2026-04-16 11:28 | 47.54850 | 19.58969 | 14532 ft | 346 kts | 114° |
| 2026-04-16 11:28 | 47.53870 | 19.62222 | 15079 ft | 349 kts | 114° |
| 2026-04-16 11:28 | 47.52887 | 19.65479 | 15605 ft | 352 kts | 114° |
| 2026-04-16 11:29 | 47.51887 | 19.68792 | 16122 ft | 355 kts | 114° |
| 2026-04-16 11:29 | 47.50861 | 19.72187 | 16624 ft | 359 kts | 114° |
| 2026-04-16 11:29 | 47.49842 | 19.75552 | 17101 ft | 362 kts | 114° |
| 2026-04-16 11:29 | 47.48813 | 19.78948 | 17597 ft | 365 kts | 114° |
| 2026-04-16 11:30 | 47.47784 | 19.82338 | 18078 ft | 367 kts | 114° |
| 2026-04-16 11:30 | 47.46736 | 19.85788 | 18543 ft | 370 kts | 114° |
| 2026-04-16 11:30 | 47.45673 | 19.89283 | 19010 ft | 373 kts | 114° |
| 2026-04-16 11:30 | 47.44615 | 19.92756 | 19486 ft | 375 kts | 114° |
| 2026-04-16 11:31 | 47.43546 | 19.96258 | 19946 ft | 377 kts | 114° |
| 2026-04-16 11:31 | 47.42469 | 19.99783 | 20378 ft | 380 kts | 114° |
| 2026-04-16 11:31 | 47.41382 | 20.03337 | 20805 ft | 382 kts | 114° |
| 2026-04-16 11:31 | 47.40281 | 20.06931 | 21242 ft | 384 kts | 114° |
| 2026-04-16 11:32 | 47.39189 | 20.10494 | 21663 ft | 387 kts | 114° |
| 2026-04-16 11:32 | 47.38083 | 20.14092 | 22063 ft | 389 kts | 114° |
| 2026-04-16 11:32 | 47.36950 | 20.17772 | 22455 ft | 392 kts | 114° |
| 2026-04-16 11:32 | 47.35714 | 20.21349 | 22808 ft | 395 kts | 122° |
| 2026-04-16 11:33 | 47.34098 | 20.24578 | 23176 ft | 396 kts | 132° |
| 2026-04-16 11:33 | 47.32130 | 20.27424 | 23568 ft | 397 kts | 139° |
| 2026-04-16 11:33 | 47.30062 | 20.30079 | 23962 ft | 399 kts | 140° |
| 2026-04-16 11:33 | 47.27951 | 20.32749 | 24344 ft | 401 kts | 140° |
| 2026-04-16 11:34 | 47.25837 | 20.35440 | 24712 ft | 403 kts | 140° |
| 2026-04-16 11:34 | 47.23736 | 20.38133 | 25065 ft | 405 kts | 140° |
| 2026-04-16 11:34 | 47.21651 | 20.40934 | 25405 ft | 407 kts | 134° |
| 2026-04-16 11:34 | 47.19847 | 20.44177 | 25746 ft | 410 kts | 124° |
| 2026-04-16 11:35 | 47.18436 | 20.47791 | 26074 ft | 412 kts | 115° |
| 2026-04-16 11:35 | 47.17251 | 20.51572 | 26393 ft | 414 kts | 114° |
| 2026-04-16 11:35 | 47.16088 | 20.55429 | 26707 ft | 416 kts | 113° |
| 2026-04-16 11:35 | 47.14918 | 20.59309 | 27006 ft | 418 kts | 113° |
| 2026-04-16 11:36 | 47.13725 | 20.63234 | 27308 ft | 420 kts | 114° |
| 2026-04-16 11:36 | 47.12538 | 20.67112 | 27611 ft | 422 kts | 114° |
| 2026-04-16 11:36 | 47.11315 | 20.71089 | 27906 ft | 423 kts | 114° |
| 2026-04-16 11:36 | 47.10102 | 20.75017 | 28202 ft | 425 kts | 114° |
| 2026-04-16 11:37 | 47.08886 | 20.78944 | 28509 ft | 426 kts | 114° |
| 2026-04-16 11:37 | 47.07655 | 20.82909 | 28800 ft | 428 kts | 114° |
| 2026-04-16 11:37 | 47.06430 | 20.86846 | 29070 ft | 430 kts | 114° |
| 2026-04-16 11:37 | 47.05182 | 20.90853 | 29353 ft | 431 kts | 114° |
| 2026-04-16 11:38 | 47.03940 | 20.94834 | 29632 ft | 433 kts | 114° |
| 2026-04-16 11:38 | 47.02690 | 20.98834 | 29905 ft | 434 kts | 114° |
| 2026-04-16 11:38 | 47.01437 | 21.02836 | 30170 ft | 436 kts | 114° |
| 2026-04-16 11:38 | 47.00177 | 21.06856 | 30431 ft | 437 kts | 114° |
| 2026-04-16 11:39 | 46.98908 | 21.10899 | 30684 ft | 439 kts | 114° |
| 2026-04-16 11:39 | 46.97620 | 21.14996 | 30947 ft | 441 kts | 114° |
| 2026-04-16 11:39 | 46.96349 | 21.19029 | 31176 ft | 442 kts | 114° |
| 2026-04-16 11:39 | 46.95052 | 21.23143 | 31419 ft | 444 kts | 114° |
| 2026-04-16 11:40 | 46.93759 | 21.27235 | 31638 ft | 446 kts | 114° |
| 2026-04-16 11:40 | 46.92472 | 21.31300 | 31876 ft | 447 kts | 114° |
| 2026-04-16 11:40 | 46.91155 | 21.35455 | 32112 ft | 449 kts | 114° |
| 2026-04-16 11:40 | 46.89841 | 21.39593 | 32340 ft | 450 kts | 114° |
| 2026-04-16 11:41 | 46.88538 | 21.43692 | 32559 ft | 451 kts | 114° |
| 2026-04-16 11:41 | 46.87207 | 21.47870 | 32779 ft | 452 kts | 113° |
| 2026-04-16 11:41 | 46.85881 | 21.52033 | 32993 ft | 453 kts | 113° |
| 2026-04-16 11:41 | 46.84566 | 21.56151 | 33253 ft | 453 kts | 113° |
| 2026-04-16 11:42 | 46.83225 | 21.60340 | 33544 ft | 452 kts | 113° |
| 2026-04-16 11:42 | 46.81903 | 21.64462 | 33833 ft | 451 kts | 113° |
| 2026-04-16 11:42 | 46.80513 | 21.68530 | 34080 ft | 451 kts | 117° |
| 2026-04-16 11:42 | 46.79001 | 21.72509 | 34338 ft | 450 kts | 118° |
| 2026-04-16 11:43 | 46.77461 | 21.76515 | 34636 ft | 449 kts | 118° |
| 2026-04-16 11:43 | 46.75952 | 21.80432 | 34906 ft | 448 kts | 118° |
| 2026-04-16 11:43 | 46.74435 | 21.84366 | 35181 ft | 447 kts | 118° |
| 2026-04-16 11:43 | 46.72906 | 21.88333 | 35466 ft | 446 kts | 118° |
| 2026-04-16 11:44 | 46.71390 | 21.92261 | 35705 ft | 445 kts | 117° |
| 2026-04-16 11:44 | 46.69880 | 21.96169 | 35961 ft | 444 kts | 117° |
| 2026-04-16 11:44 | 46.68363 | 22.00089 | 36174 ft | 444 kts | 117° |
| 2026-04-16 11:44 | 46.66865 | 22.03951 | 36362 ft | 444 kts | 117° |
| 2026-04-16 11:45 | 46.65337 | 22.07891 | 36551 ft | 444 kts | 117° |
| 2026-04-16 11:45 | 46.63825 | 22.11785 | 36743 ft | 444 kts | 117° |
| 2026-04-16 11:45 | 46.62319 | 22.15656 | 36961 ft | 443 kts | 117° |
| 2026-04-16 11:45 | 46.60802 | 22.19550 | 37126 ft | 443 kts | 117° |
| 2026-04-16 11:46 | 46.59285 | 22.23439 | 37126 ft | 443 kts | 117° |
| 2026-04-16 11:46 | 46.56271 | 22.31151 | 37132 ft | 442 kts | 117° |
| 2026-04-16 11:47 | 46.53239 | 22.38886 | 37130 ft | 441 kts | 117° |
| 2026-04-16 11:47 | 46.50212 | 22.46586 | 37128 ft | 441 kts | 117° |
| 2026-04-16 11:48 | 46.47158 | 22.54326 | 37128 ft | 441 kts | 117° |
| 2026-04-16 11:48 | 46.44116 | 22.62023 | 37134 ft | 442 kts | 117° |
| 2026-04-16 11:49 | 46.41055 | 22.69742 | 37136 ft | 442 kts | 118° |
| 2026-04-16 11:49 | 46.38015 | 22.77387 | 37134 ft | 440 kts | 118° |
| 2026-04-16 11:50 | 46.34959 | 22.85056 | 37134 ft | 440 kts | 118° |
| 2026-04-16 11:50 | 46.31907 | 22.92686 | 37133 ft | 440 kts | 118° |
| 2026-04-16 11:51 | 46.28847 | 23.00316 | 37135 ft | 440 kts | 117° |
| 2026-04-16 11:51 | 46.25774 | 23.07944 | 37135 ft | 440 kts | 117° |
| 2026-04-16 11:52 | 46.22712 | 23.15556 | 37133 ft | 440 kts | 117° |
| 2026-04-16 11:52 | 46.19641 | 23.23168 | 37134 ft | 440 kts | 117° |
| 2026-04-16 11:53 | 46.16571 | 23.30748 | 37132 ft | 439 kts | 117° |
| 2026-04-16 11:53 | 46.13486 | 23.38339 | 37128 ft | 439 kts | 117° |
| 2026-04-16 11:53 | 46.11947 | 23.42116 | 36770 ft | 439 kts | 117° |
| 2026-04-16 11:54 | 46.10411 | 23.45884 | 37146 ft | 440 kts | 117° |
| 2026-04-16 11:54 | 46.08858 | 23.49684 | 36799 ft | 439 kts | 117° |
| 2026-04-16 11:54 | 46.07326 | 23.53427 | 37021 ft | 438 kts | 117° |
| 2026-04-16 11:55 | 46.04220 | 23.61008 | 37106 ft | 440 kts | 117° |
| 2026-04-16 11:55 | 46.01121 | 23.68548 | 37117 ft | 440 kts | 118° |
| 2026-04-16 11:56 | 45.97977 | 23.76175 | 37123 ft | 440 kts | 118° |
| 2026-04-16 11:56 | 45.94859 | 23.83719 | 37124 ft | 440 kts | 118° |
| 2026-04-16 11:57 | 45.91754 | 23.91212 | 37135 ft | 440 kts | 118° |
| 2026-04-16 11:57 | 45.88626 | 23.98739 | 37136 ft | 440 kts | 118° |
| 2026-04-16 11:58 | 45.85474 | 24.06307 | 37141 ft | 440 kts | 118° |
| 2026-04-16 11:58 | 45.82359 | 24.13761 | 37143 ft | 439 kts | 117° |
| 2026-04-16 11:59 | 45.79213 | 24.21271 | 37143 ft | 438 kts | 118° |
| 2026-04-16 11:59 | 45.76092 | 24.28706 | 37138 ft | 438 kts | 118° |
| 2026-04-16 12:00 | 45.72955 | 24.36157 | 37136 ft | 439 kts | 118° |
| 2026-04-16 12:00 | 45.69823 | 24.43571 | 37136 ft | 439 kts | 118° |
| 2026-04-16 12:01 | 45.66670 | 24.51016 | 37140 ft | 439 kts | 118° |
| 2026-04-16 12:01 | 45.63516 | 24.58447 | 37143 ft | 438 kts | 117° |
| 2026-04-16 12:02 | 45.58765 | 24.69603 | 37136 ft | 438 kts | 118° |
| 2026-04-16 12:02 | 45.55607 | 24.76996 | 37147 ft | 438 kts | 118° |
| 2026-04-16 12:03 | 45.52441 | 24.84387 | 37140 ft | 438 kts | 118° |
| 2026-04-16 12:03 | 45.49274 | 24.91758 | 37146 ft | 438 kts | 119° |
| 2026-04-16 12:04 | 45.46090 | 24.99149 | 37140 ft | 439 kts | 118° |
| 2026-04-16 12:04 | 45.42911 | 25.06510 | 37145 ft | 439 kts | 118° |
| 2026-04-16 12:05 | 45.39721 | 25.13878 | 37145 ft | 439 kts | 118° |
| 2026-04-16 12:05 | 45.36514 | 25.21268 | 37146 ft | 439 kts | 118° |
| 2026-04-16 12:06 | 45.33316 | 25.28613 | 37141 ft | 439 kts | 118° |
| 2026-04-16 12:06 | 45.30111 | 25.35955 | 37133 ft | 438 kts | 118° |
| 2026-04-16 12:07 | 45.26922 | 25.43244 | 37123 ft | 438 kts | 118° |
| 2026-04-16 12:07 | 45.23726 | 25.50533 | 37121 ft | 438 kts | 118° |
| 2026-04-16 12:08 | 45.20503 | 25.57865 | 37127 ft | 437 kts | 118° |
| 2026-04-16 12:08 | 45.17296 | 25.65139 | 37130 ft | 437 kts | 119° |
| 2026-04-16 12:09 | 45.14059 | 25.72457 | 37121 ft | 438 kts | 119° |
| 2026-04-16 12:09 | 45.10834 | 25.79735 | 37121 ft | 438 kts | 119° |
| 2026-04-16 12:10 | 45.07594 | 25.87029 | 37128 ft | 438 kts | 119° |
| 2026-04-16 12:10 | 45.04374 | 25.94262 | 37125 ft | 438 kts | 119° |
| 2026-04-16 12:11 | 45.01143 | 26.01498 | 37132 ft | 437 kts | 120° |
| 2026-04-16 12:11 | 44.97888 | 26.08765 | 37133 ft | 438 kts | 120° |
| 2026-04-16 12:12 | 44.94634 | 26.16009 | 37138 ft | 439 kts | 119° |
| 2026-04-16 12:12 | 44.91361 | 26.23286 | 37140 ft | 440 kts | 119° |
| 2026-04-16 12:13 | 44.88076 | 26.30567 | 37143 ft | 442 kts | 120° |
| 2026-04-16 12:13 | 44.84783 | 26.37848 | 37146 ft | 442 kts | 120° |
| 2026-04-16 12:14 | 44.81463 | 26.45171 | 37142 ft | 442 kts | 119° |
| 2026-04-16 12:14 | 44.78175 | 26.52404 | 37142 ft | 444 kts | 119° |
| 2026-04-16 12:15 | 44.74832 | 26.59739 | 37143 ft | 445 kts | 120° |
| 2026-04-16 12:15 | 44.71507 | 26.67020 | 37143 ft | 447 kts | 120° |
| 2026-04-16 12:16 | 44.68124 | 26.74403 | 37149 ft | 448 kts | 120° |
| 2026-04-16 12:16 | 44.64764 | 26.81718 | 37154 ft | 448 kts | 120° |
| 2026-04-16 12:17 | 44.61383 | 26.89062 | 37152 ft | 450 kts | 121° |
| 2026-04-16 12:17 | 44.57993 | 26.96404 | 37158 ft | 450 kts | 121° |
| 2026-04-16 12:18 | 44.54598 | 27.03740 | 37155 ft | 452 kts | 121° |
| 2026-04-16 12:18 | 44.51176 | 27.11114 | 37155 ft | 454 kts | 121° |
| 2026-04-16 12:19 | 44.47729 | 27.18529 | 37155 ft | 455 kts | 121° |
| 2026-04-16 12:19 | 44.44285 | 27.25912 | 37149 ft | 456 kts | 121° |
| 2026-04-16 12:20 | 44.40834 | 27.33290 | 37161 ft | 456 kts | 121° |
| 2026-04-16 12:20 | 44.37340 | 27.40744 | 37161 ft | 458 kts | 121° |
| 2026-04-16 12:21 | 44.33866 | 27.48138 | 37159 ft | 458 kts | 121° |
| 2026-04-16 12:21 | 44.30391 | 27.55513 | 37165 ft | 458 kts | 121° |
| 2026-04-16 12:22 | 44.26870 | 27.62967 | 37161 ft | 460 kts | 122° |
| 2026-04-16 12:22 | 44.23364 | 27.70368 | 37162 ft | 461 kts | 122° |
| 2026-04-16 12:23 | 44.19824 | 27.77823 | 37168 ft | 462 kts | 123° |
| 2026-04-16 12:23 | 44.16284 | 27.85261 | 37163 ft | 462 kts | 123° |
| 2026-04-16 12:24 | 44.12734 | 27.92698 | 37158 ft | 463 kts | 123° |
| 2026-04-16 12:24 | 44.09198 | 28.00088 | 37163 ft | 462 kts | 123° |
| 2026-04-16 12:25 | 44.05642 | 28.07500 | 37176 ft | 462 kts | 123° |
| 2026-04-16 12:25 | 44.02064 | 28.14942 | 37179 ft | 462 kts | 123° |
| 2026-04-16 12:26 | 43.98502 | 28.22327 | 37172 ft | 463 kts | 123° |
| 2026-04-16 12:26 | 43.94922 | 28.29734 | 37170 ft | 464 kts | 123° |
| 2026-04-16 12:27 | 43.91331 | 28.37144 | 37174 ft | 465 kts | 123° |
| 2026-04-16 12:27 | 43.87717 | 28.44587 | 37173 ft | 465 kts | 123° |
| 2026-04-16 12:28 | 43.84100 | 28.52013 | 37181 ft | 472 kts | 123° |
| 2026-04-16 12:28 | 43.80412 | 28.59570 | 37187 ft | 479 kts | 123° |
| 2026-04-16 12:29 | 43.76672 | 28.67212 | 37186 ft | 485 kts | 124° |
| 2026-04-16 12:29 | 43.72868 | 28.74967 | 37185 ft | 489 kts | 124° |
| 2026-04-16 12:30 | 43.69052 | 28.82682 | 37195 ft | 489 kts | 125° |
| 2026-04-16 12:30 | 43.65083 | 28.90275 | 37197 ft | 490 kts | 126° |
| 2026-04-16 12:31 | 43.61077 | 28.97864 | 37193 ft | 490 kts | 126° |
| 2026-04-16 12:31 | 43.57065 | 29.05480 | 37195 ft | 490 kts | 126° |
| 2026-04-16 12:32 | 43.53087 | 29.13030 | 37197 ft | 491 kts | 126° |
| 2026-04-16 12:32 | 43.49060 | 29.20657 | 37195 ft | 492 kts | 126° |
| 2026-04-16 12:33 | 43.45049 | 29.28238 | 37197 ft | 492 kts | 126° |
| 2026-04-16 12:33 | 43.41026 | 29.35820 | 37192 ft | 493 kts | 126° |
| 2026-04-16 12:34 | 43.37007 | 29.43374 | 37198 ft | 493 kts | 126° |
| 2026-04-16 12:34 | 43.32952 | 29.50978 | 37192 ft | 493 kts | 127° |
| 2026-04-16 12:35 | 43.28908 | 29.58536 | 37190 ft | 494 kts | 127° |
| 2026-04-16 12:35 | 43.24847 | 29.66114 | 37183 ft | 494 kts | 127° |
| 2026-04-16 12:36 | 43.20790 | 29.73666 | 37188 ft | 495 kts | 128° |
| 2026-04-16 12:36 | 43.16705 | 29.81245 | 37187 ft | 495 kts | 127° |
| 2026-04-16 12:37 | 43.12623 | 29.88803 | 37192 ft | 495 kts | 128° |
| 2026-04-16 12:37 | 43.08534 | 29.96352 | 37183 ft | 497 kts | 128° |
| 2026-04-16 12:38 | 43.04413 | 30.03937 | 37192 ft | 498 kts | 128° |
| 2026-04-16 12:38 | 43.00291 | 30.11511 | 37177 ft | 499 kts | 128° |
| 2026-04-16 12:39 | 42.96164 | 30.19075 | 37184 ft | 498 kts | 128° |
| 2026-04-16 12:39 | 42.92028 | 30.26637 | 37176 ft | 498 kts | 128° |
| 2026-04-16 12:40 | 42.87904 | 30.34160 | 37165 ft | 497 kts | 128° |
| 2026-04-16 12:40 | 42.83739 | 30.41737 | 37164 ft | 497 kts | 128° |
| 2026-04-16 12:41 | 42.79640 | 30.49176 | 37161 ft | 491 kts | 127° |
| 2026-04-16 12:41 | 42.76039 | 30.57054 | 37167 ft | 490 kts | 116° |
| 2026-04-16 12:42 | 42.73550 | 30.65659 | 37162 ft | 491 kts | 105° |
| 2026-04-16 12:42 | 42.72246 | 30.74495 | 37157 ft | 490 kts | 96° |
| 2026-04-16 12:43 | 42.71361 | 30.83661 | 37159 ft | 490 kts | 96° |
| 2026-04-16 12:43 | 42.70460 | 30.92851 | 37160 ft | 491 kts | 96° |
| 2026-04-16 12:44 | 42.69530 | 31.01968 | 37151 ft | 491 kts | 96° |
| 2026-04-16 12:44 | 42.68577 | 31.11136 | 37152 ft | 491 kts | 96° |
| 2026-04-16 12:45 | 42.67615 | 31.20314 | 37153 ft | 492 kts | 96° |
| 2026-04-16 12:45 | 42.66646 | 31.29470 | 37151 ft | 491 kts | 96° |
| 2026-04-16 12:46 | 42.65673 | 31.38611 | 37156 ft | 492 kts | 96° |
| 2026-04-16 12:46 | 42.64688 | 31.47769 | 37147 ft | 492 kts | 96° |
| 2026-04-16 12:47 | 42.63698 | 31.56918 | 37140 ft | 492 kts | 96° |
| 2026-04-16 12:47 | 42.62692 | 31.66136 | 37144 ft | 492 kts | 97° |
| 2026-04-16 12:48 | 42.61691 | 31.75255 | 37145 ft | 493 kts | 97° |
| 2026-04-16 12:48 | 42.60671 | 31.84472 | 37147 ft | 493 kts | 97° |
| 2026-04-16 12:49 | 42.59652 | 31.93622 | 37137 ft | 493 kts | 97° |
| 2026-04-16 12:49 | 42.58618 | 32.02828 | 37139 ft | 494 kts | 97° |
| 2026-04-16 12:50 | 42.57592 | 32.11971 | 37135 ft | 494 kts | 97° |
| 2026-04-16 12:50 | 42.56538 | 32.21180 | 37130 ft | 494 kts | 97° |
| 2026-04-16 12:51 | 42.55483 | 32.30317 | 37130 ft | 495 kts | 97° |
| 2026-04-16 12:51 | 42.54417 | 32.39503 | 37126 ft | 495 kts | 97° |
| 2026-04-16 12:52 | 42.53338 | 32.48733 | 37124 ft | 495 kts | 97° |
| 2026-04-16 12:52 | 42.52262 | 32.57901 | 37124 ft | 495 kts | 97° |
| 2026-04-16 12:53 | 42.51179 | 32.67045 | 37124 ft | 495 kts | 98° |
| 2026-04-16 12:53 | 42.50100 | 32.76094 | 37124 ft | 494 kts | 98° |
| 2026-04-16 12:54 | 42.48997 | 32.85274 | 37117 ft | 494 kts | 98° |
| 2026-04-16 12:54 | 42.47894 | 32.94403 | 37119 ft | 494 kts | 98° |
| 2026-04-16 12:55 | 42.46778 | 33.03572 | 37114 ft | 494 kts | 98° |
| 2026-04-16 12:55 | 42.45653 | 33.12747 | 37114 ft | 495 kts | 98° |
| 2026-04-16 12:56 | 42.44517 | 33.21925 | 37110 ft | 495 kts | 97° |
| 2026-04-16 12:56 | 42.43382 | 33.31047 | 37125 ft | 495 kts | 98° |
| 2026-04-16 12:57 | 42.42236 | 33.40176 | 37114 ft | 495 kts | 98° |
| 2026-04-16 12:57 | 42.41081 | 33.49320 | 37114 ft | 496 kts | 98° |
| 2026-04-16 12:58 | 42.39914 | 33.58499 | 37110 ft | 495 kts | 97° |
| 2026-04-16 12:58 | 42.38749 | 33.67635 | 37116 ft | 496 kts | 98° |
| 2026-04-16 12:59 | 42.37570 | 33.76814 | 37116 ft | 496 kts | 98° |
| 2026-04-16 13:00 | 42.35795 | 33.90510 | 37122 ft | 496 kts | 98° |
| 2026-04-16 13:00 | 42.34595 | 33.99686 | 37119 ft | 496 kts | 98° |
| 2026-04-16 13:01 | 42.33400 | 34.08816 | 37141 ft | 496 kts | 98° |
| 2026-04-16 13:01 | 42.32188 | 34.18008 | 37138 ft | 495 kts | 98° |
| 2026-04-16 13:02 | 42.30980 | 34.27121 | 37140 ft | 495 kts | 98° |
| 2026-04-16 13:02 | 42.29761 | 34.36242 | 37137 ft | 495 kts | 98° |
| 2026-04-16 13:03 | 42.28535 | 34.45340 | 37126 ft | 495 kts | 98° |
| 2026-04-16 13:03 | 42.27301 | 34.54441 | 37128 ft | 495 kts | 98° |
| 2026-04-16 13:04 | 42.26061 | 34.63544 | 37136 ft | 495 kts | 98° |
| 2026-04-16 13:04 | 42.24813 | 34.72676 | 37149 ft | 495 kts | 99° |
| 2026-04-16 13:05 | 42.23551 | 34.81799 | 37140 ft | 495 kts | 99° |
| 2026-04-16 13:05 | 42.22287 | 34.90841 | 37166 ft | 494 kts | 99° |
| 2026-04-16 13:06 | 42.21011 | 34.99941 | 37152 ft | 495 kts | 99° |
| 2026-04-16 13:06 | 42.19731 | 35.09027 | 37167 ft | 496 kts | 99° |
| 2026-04-16 13:07 | 42.18438 | 35.18151 | 37162 ft | 496 kts | 99° |
| 2026-04-16 13:07 | 42.17149 | 35.27215 | 37166 ft | 496 kts | 99° |
| 2026-04-16 13:08 | 42.15845 | 35.36306 | 37156 ft | 495 kts | 99° |
| 2026-04-16 13:08 | 42.14531 | 35.45408 | 37167 ft | 495 kts | 99° |
| 2026-04-16 13:09 | 42.13218 | 35.54433 | 37170 ft | 495 kts | 99° |
| 2026-04-16 13:09 | 42.11898 | 35.63494 | 37174 ft | 495 kts | 99° |
| 2026-04-16 13:10 | 42.10570 | 35.72558 | 37171 ft | 494 kts | 99° |
| 2026-04-16 13:10 | 42.09238 | 35.81599 | 37179 ft | 494 kts | 99° |
| 2026-04-16 13:11 | 42.07899 | 35.90641 | 37175 ft | 495 kts | 99° |
| 2026-04-16 13:11 | 42.06547 | 35.99703 | 37171 ft | 494 kts | 99° |
| 2026-04-16 13:12 | 42.05204 | 36.08679 | 37182 ft | 494 kts | 99° |
| 2026-04-16 13:12 | 42.03838 | 36.17740 | 37187 ft | 494 kts | 99° |
| 2026-04-16 13:13 | 42.02471 | 36.26754 | 37190 ft | 493 kts | 99° |
| 2026-04-16 13:13 | 42.01107 | 36.35709 | 37184 ft | 493 kts | 99° |
| 2026-04-16 13:14 | 41.99730 | 36.44702 | 37204 ft | 493 kts | 99° |
| 2026-04-16 13:14 | 41.98344 | 36.53697 | 37184 ft | 492 kts | 99° |
| 2026-04-16 13:15 | 41.96957 | 36.62646 | 37183 ft | 492 kts | 99° |
| 2026-04-16 13:15 | 41.95560 | 36.71628 | 37181 ft | 492 kts | 100° |
| 2026-04-16 13:16 | 41.94160 | 36.80580 | 37186 ft | 492 kts | 100° |
| 2026-04-16 13:16 | 41.92749 | 36.89553 | 37184 ft | 492 kts | 100° |
| 2026-04-16 13:17 | 41.91328 | 36.98556 | 37174 ft | 492 kts | 99° |
| 2026-04-16 13:17 | 41.90378 | 37.07571 | 37189 ft | 490 kts | 92° |
| 2026-04-16 13:18 | 41.90142 | 37.16675 | 37192 ft | 488 kts | 88° |
| 2026-04-16 13:18 | 41.90036 | 37.25740 | 37179 ft | 488 kts | 88° |
| 2026-04-16 13:19 | 41.89912 | 37.34770 | 37175 ft | 487 kts | 88° |
| 2026-04-16 13:19 | 41.89771 | 37.43840 | 37185 ft | 487 kts | 88° |
| 2026-04-16 13:20 | 41.89618 | 37.52858 | 37186 ft | 486 kts | 88° |
| 2026-04-16 13:20 | 41.89454 | 37.61945 | 37163 ft | 486 kts | 88° |
| 2026-04-16 13:21 | 41.89285 | 37.70973 | 37184 ft | 485 kts | 89° |
| 2026-04-16 13:21 | 41.89110 | 37.80033 | 37185 ft | 486 kts | 89° |
| 2026-04-16 13:22 | 41.88927 | 37.89021 | 37182 ft | 485 kts | 89° |
| 2026-04-16 13:22 | 41.88740 | 37.98031 | 37185 ft | 485 kts | 89° |
| 2026-04-16 13:23 | 41.88544 | 38.07092 | 37181 ft | 485 kts | 89° |
| 2026-04-16 13:23 | 41.88338 | 38.16053 | 37185 ft | 485 kts | 89° |
| 2026-04-16 13:24 | 41.88126 | 38.25115 | 37178 ft | 485 kts | 89° |
| 2026-04-16 13:24 | 41.87912 | 38.34054 | 37180 ft | 484 kts | 89° |
| 2026-04-16 13:25 | 41.87686 | 38.43105 | 37181 ft | 484 kts | 89° |
| 2026-04-16 13:25 | 41.87456 | 38.52083 | 37185 ft | 484 kts | 89° |
| 2026-04-16 13:26 | 41.87218 | 38.61072 | 37178 ft | 484 kts | 89° |
| 2026-04-16 13:26 | 41.86972 | 38.70092 | 37173 ft | 484 kts | 90° |
| 2026-04-16 13:27 | 41.86726 | 38.78862 | 37179 ft | 484 kts | 89° |
| 2026-04-16 13:27 | 41.86466 | 38.87876 | 37183 ft | 484 kts | 90° |
| 2026-04-16 13:28 | 41.86200 | 38.96862 | 37178 ft | 483 kts | 90° |
| 2026-04-16 13:28 | 41.85929 | 39.05846 | 37173 ft | 483 kts | 90° |
| 2026-04-16 13:29 | 41.85648 | 39.14836 | 37176 ft | 483 kts | 90° |
| 2026-04-16 13:29 | 41.85363 | 39.23772 | 37179 ft | 483 kts | 90° |
| 2026-04-16 13:30 | 41.85070 | 39.32751 | 37182 ft | 483 kts | 89° |
| 2026-04-16 13:30 | 41.84774 | 39.41703 | 37175 ft | 483 kts | 90° |
| 2026-04-16 13:31 | 41.84466 | 39.50675 | 37177 ft | 483 kts | 90° |
| 2026-04-16 13:31 | 41.84150 | 39.59628 | 37177 ft | 483 kts | 90° |
| 2026-04-16 13:32 | 41.83828 | 39.68560 | 37178 ft | 483 kts | 90° |
| 2026-04-16 13:32 | 41.83499 | 39.77531 | 37178 ft | 483 kts | 90° |
| 2026-04-16 13:33 | 41.83164 | 39.86544 | 37186 ft | 482 kts | 90° |
| 2026-04-16 13:33 | 41.82827 | 39.95469 | 37191 ft | 482 kts | 90° |
| 2026-04-16 13:34 | 41.82480 | 40.04419 | 37095 ft | 484 kts | 90° |
| 2026-04-16 13:34 | 41.82304 | 40.08891 | 36359 ft | 488 kts | 90° |
| 2026-04-16 13:34 | 41.82121 | 40.13425 | 35653 ft | 492 kts | 90° |
| 2026-04-16 13:34 | 41.81934 | 40.18031 | 34941 ft | 494 kts | 90° |
| 2026-04-16 13:35 | 41.81749 | 40.22549 | 34161 ft | 496 kts | 90° |
| 2026-04-16 13:35 | 41.81558 | 40.27191 | 33382 ft | 496 kts | 90° |
| 2026-04-16 13:35 | 41.81369 | 40.31739 | 32733 ft | 493 kts | 90° |
| 2026-04-16 13:35 | 41.81177 | 40.36297 | 32271 ft | 486 kts | 90° |
| 2026-04-16 13:36 | 41.80989 | 40.40744 | 31811 ft | 480 kts | 90° |
| 2026-04-16 13:36 | 41.80798 | 40.45220 | 31345 ft | 474 kts | 90° |
| 2026-04-16 13:36 | 41.80611 | 40.49579 | 30895 ft | 469 kts | 90° |
| 2026-04-16 13:36 | 41.80425 | 40.53854 | 30442 ft | 464 kts | 90° |
| 2026-04-16 13:37 | 41.80236 | 40.58154 | 29989 ft | 458 kts | 90° |
| 2026-04-16 13:37 | 41.80132 | 40.62400 | 29522 ft | 451 kts | 85° |
| 2026-04-16 13:37 | 41.80434 | 40.66501 | 29059 ft | 444 kts | 78° |
| 2026-04-16 13:37 | 41.81007 | 40.70516 | 28530 ft | 440 kts | 75° |
| 2026-04-16 13:38 | 41.81630 | 40.74378 | 28058 ft | 436 kts | 74° |
| 2026-04-16 13:38 | 41.82276 | 40.78339 | 27587 ft | 432 kts | 74° |
| 2026-04-16 13:38 | 41.82906 | 40.82250 | 27126 ft | 428 kts | 75° |
| 2026-04-16 13:38 | 41.83516 | 40.86104 | 26679 ft | 423 kts | 75° |
| 2026-04-16 13:39 | 41.84114 | 40.89927 | 26236 ft | 419 kts | 75° |
| 2026-04-16 13:39 | 41.84696 | 40.93686 | 25791 ft | 416 kts | 75° |
| 2026-04-16 13:39 | 41.85282 | 40.97488 | 25342 ft | 412 kts | 75° |
| 2026-04-16 13:39 | 41.85854 | 41.01213 | 24904 ft | 409 kts | 75° |
| 2026-04-16 13:40 | 41.86422 | 41.04926 | 24459 ft | 406 kts | 75° |
| 2026-04-16 13:40 | 41.86981 | 41.08590 | 24039 ft | 402 kts | 75° |
| 2026-04-16 13:40 | 41.87538 | 41.12250 | 23610 ft | 399 kts | 75° |
| 2026-04-16 13:40 | 41.88082 | 41.15838 | 23185 ft | 396 kts | 75° |
| 2026-04-16 13:41 | 41.88629 | 41.19453 | 22751 ft | 393 kts | 75° |
| 2026-04-16 13:41 | 41.89167 | 41.23016 | 22324 ft | 390 kts | 75° |
| 2026-04-16 13:41 | 41.89701 | 41.26553 | 21901 ft | 387 kts | 75° |
| 2026-04-16 13:41 | 41.90234 | 41.30097 | 21442 ft | 385 kts | 75° |
| 2026-04-16 13:42 | 41.90756 | 41.33585 | 21032 ft | 382 kts | 75° |
| 2026-04-16 13:42 | 41.91274 | 41.37046 | 20593 ft | 379 kts | 75° |
| 2026-04-16 13:42 | 41.91787 | 41.40476 | 20190 ft | 376 kts | 75° |
| 2026-04-16 13:42 | 41.92297 | 41.43905 | 19766 ft | 374 kts | 75° |
| 2026-04-16 13:43 | 41.92806 | 41.47322 | 19294 ft | 372 kts | 75° |
| 2026-04-16 13:43 | 41.93308 | 41.50705 | 18882 ft | 369 kts | 75° |
| 2026-04-16 13:43 | 41.93806 | 41.54073 | 18463 ft | 367 kts | 74° |
| 2026-04-16 13:43 | 41.94293 | 41.57374 | 18043 ft | 365 kts | 74° |
| 2026-04-16 13:44 | 41.94785 | 41.60708 | 17614 ft | 363 kts | 74° |
| 2026-04-16 13:44 | 41.95273 | 41.64010 | 17207 ft | 361 kts | 75° |
| 2026-04-16 13:44 | 41.95763 | 41.67335 | 16768 ft | 359 kts | 75° |
| 2026-04-16 13:44 | 41.96238 | 41.70575 | 16333 ft | 357 kts | 76° |
| 2026-04-16 13:45 | 41.96715 | 41.73834 | 15936 ft | 355 kts | 76° |
| 2026-04-16 13:45 | 41.97187 | 41.77068 | 15490 ft | 353 kts | 76° |
| 2026-04-16 13:45 | 41.97605 | 41.79940 | 15139 ft | 351 kts | 76° |
| 2026-04-16 13:45 | 41.98038 | 41.82919 | 14745 ft | 349 kts | 76° |
| 2026-04-16 13:46 | 41.98520 | 41.86239 | 14316 ft | 346 kts | 76° |
| 2026-04-16 13:46 | 41.98978 | 41.89397 | 13884 ft | 344 kts | 76° |
| 2026-04-16 13:46 | 41.99429 | 41.92517 | 13495 ft | 342 kts | 77° |
| 2026-04-16 13:46 | 41.99878 | 41.95623 | 13054 ft | 340 kts | 77° |
| 2026-04-16 13:47 | 42.00328 | 41.98744 | 12645 ft | 337 kts | 77° |
| 2026-04-16 13:47 | 42.00769 | 42.01820 | 12254 ft | 335 kts | 78° |
| 2026-04-16 13:47 | 42.01208 | 42.04886 | 11848 ft | 334 kts | 78° |
| 2026-04-16 13:47 | 42.01645 | 42.07944 | 11445 ft | 333 kts | 78° |
| 2026-04-16 13:48 | 42.02075 | 42.10960 | 10998 ft | 332 kts | 78° |
| 2026-04-16 13:48 | 42.02511 | 42.14014 | 10557 ft | 330 kts | 78° |
| 2026-04-16 13:48 | 42.02937 | 42.17008 | 10308 ft | 321 kts | 79° |
| 2026-04-16 13:48 | 42.03342 | 42.19873 | 10194 ft | 309 kts | 79° |
| 2026-04-16 13:49 | 42.03739 | 42.22678 | 9916 ft | 302 kts | 79° |
| 2026-04-16 13:49 | 42.04127 | 42.25415 | 9550 ft | 299 kts | 79° |
| 2026-04-16 13:49 | 42.04523 | 42.28178 | 9205 ft | 296 kts | 79° |
| 2026-04-16 13:49 | 42.04939 | 42.30866 | 8857 ft | 293 kts | 78° |
| 2026-04-16 13:50 | 42.05352 | 42.33485 | 8539 ft | 289 kts | 79° |
| 2026-04-16 13:50 | 42.05766 | 42.36120 | 8173 ft | 286 kts | 79° |
| 2026-04-16 13:50 | 42.06170 | 42.38721 | 7831 ft | 282 kts | 79° |
| 2026-04-16 13:50 | 42.06566 | 42.41273 | 7519 ft | 278 kts | 79° |
| 2026-04-16 13:51 | 42.06960 | 42.43822 | 7211 ft | 275 kts | 79° |
| 2026-04-16 13:51 | 42.07346 | 42.46309 | 6878 ft | 272 kts | 79° |
| 2026-04-16 13:51 | 42.07727 | 42.48777 | 6568 ft | 271 kts | 79° |
| 2026-04-16 13:51 | 42.08111 | 42.51261 | 6220 ft | 269 kts | 79° |
| 2026-04-16 13:52 | 42.08487 | 42.53711 | 5875 ft | 267 kts | 79° |
| 2026-04-16 13:52 | 42.08860 | 42.56148 | 5553 ft | 264 kts | 78° |
| 2026-04-16 13:52 | 42.09224 | 42.58529 | 5240 ft | 262 kts | 78° |
| 2026-04-16 13:52 | 42.09592 | 42.60921 | 4926 ft | 259 kts | 78° |
| 2026-04-16 13:53 | 42.09955 | 42.63293 | 4603 ft | 258 kts | 78° |
| 2026-04-16 13:53 | 42.10313 | 42.65639 | 4286 ft | 256 kts | 78° |
| 2026-04-16 13:53 | 42.10670 | 42.67971 | 3977 ft | 254 kts | 78° |
| 2026-04-16 13:53 | 42.11071 | 42.70242 | 3834 ft | 243 kts | 68° |
| 2026-04-16 13:54 | 42.11794 | 42.71661 | 3722 ft | 234 kts | 39° |
| 2026-04-16 13:54 | 42.13255 | 42.72558 | 3492 ft | 234 kts | 8° |
| 2026-04-16 13:54 | 42.14872 | 42.72386 | 3193 ft | 233 kts | 349° |
| 2026-04-16 13:54 | 42.16449 | 42.71971 | 2897 ft | 232 kts | 350° |
| 2026-04-16 13:55 | 42.17811 | 42.71631 | 2654 ft | 230 kts | 347° |
| 2026-04-16 13:55 | 42.19183 | 42.70622 | 2542 ft | 219 kts | 313° |
| 2026-04-16 13:55 | 42.19857 | 42.68877 | 2539 ft | 210 kts | 283° |
| 2026-04-16 13:55 | 42.19958 | 42.66926 | 2548 ft | 210 kts | 267° |
| 2026-04-16 13:56 | 42.19826 | 42.65209 | 2409 ft | 209 kts | 263° |
| 2026-04-16 13:56 | 42.19599 | 42.63361 | 2226 ft | 201 kts | 261° |
| 2026-04-16 13:56 | 42.19352 | 42.61531 | 1925 ft | 196 kts | 261° |
| 2026-04-16 13:56 | 42.19127 | 42.59806 | 1664 ft | 181 kts | 261° |
| 2026-04-16 13:57 | 42.18923 | 42.58193 | 1415 ft | 165 kts | 261° |
| 2026-04-16 13:57 | 42.18742 | 42.56743 | 1173 ft | 150 kts | 261° |
| 2026-04-16 13:57 | 42.18568 | 42.55386 | 980 ft | 147 kts | 261° |
| 2026-04-16 13:58 | 42.18236 | 42.52689 | 686 ft | 145 kts | 261° |
| 2026-04-16 13:58 | 42.18073 | 42.51347 | 466 ft | 144 kts | 262° |
| 2026-04-16 13:58 | 42.17903 | 42.50007 | 268 ft | 143 kts | 260° |
| 2026-04-16 13:58 | 42.17741 | 42.48723 | 172 ft | 132 kts | 259° |
| 2026-04-16 13:59 | 42.17613 | 42.47720 | 162 ft | 83 kts | 261° |
| 2026-04-16 13:59 | 42.17543 | 42.47175 | 158 ft | 33 kts | 260° |
| 2026-04-16 13:59 | 42.17513 | 42.46940 | 157 ft | 22 kts | 261° |
| 2026-04-16 13:59 | 42.17540 | 42.46784 | 156 ft | 17 kts | 344° |
| 2026-04-16 14:00 | 42.17658 | 42.46757 | 157 ft | 16 kts | 351° |
| 2026-04-16 14:00 | 42.17771 | 42.46728 | 157 ft | 16 kts | 350° |
| 2026-04-16 14:00 | 42.17875 | 42.46679 | 157 ft | 15 kts | 320° |
| 2026-04-16 14:00 | 42.17952 | 42.46580 | 158 ft | 15 kts | 316° |
| 2026-04-16 14:01 | 42.18033 | 42.46495 | 158 ft | 10 kts | 345° |
| 2026-04-16 14:01 | 42.18065 | 42.46521 | 158 ft | 2 kts | 68° |
| 2026-04-16 14:01 | 42.18071 | 42.46541 | 158 ft | 0 kts | 70° |